Time;durP1;ratioP1;P1;durP2;ratioP2;P2;SDS_P1;SDS_P2;PMS_P1;PMS_P2;Temp;Humidity;BMP_temperature;BMP_pressure;BME280_temperature;BME280_humidity;BME280_pressure;Samples;Min_cycle;Max_cycle;Signal;HPM_P1;HPM_P2
2021/11/21 00:00:57;;;;;;;17.75;11.73;;;8.40;84.00;;;;;;4936161;29;20051;-86
2021/11/21 00:03:25;;;;;;;17.75;11.55;;;8.40;84.00;;;;;;4935948;29;20055;-85
2021/11/21 00:05:52;;;;;;;15.43;11.25;;;8.40;84.00;;;;;;4934796;29;20056;-86
2021/11/21 00:08:19;;;;;;;16.00;11.07;;;8.40;84.00;;;;;;4934665;29;20472;-86
2021/11/21 00:10:45;;;;;;;14.70;11.55;;;8.40;84.00;;;;;;4934856;29;20488;-85
2021/11/21 00:13:13;;;;;;;16.70;12.18;;;8.40;84.00;;;;;;4934582;29;20043;-85
2021/11/21 00:15:41;;;;;;;18.98;13.10;;;8.40;84.00;;;;;;4936693;29;20586;-87
2021/11/21 00:18:10;;;;;;;16.92;11.82;;;8.40;84.10;;;;;;4934494;29;20110;-87
2021/11/21 00:20:38;;;;;;;15.80;12.15;;;8.30;84.10;;;;;;4934487;29;20220;-88
2021/11/21 00:23:06;;;;;;;16.73;12.48;;;8.40;84.10;;;;;;4934482;29;20083;-87
2021/11/21 00:25:33;;;;;;;16.45;12.85;;;8.30;84.10;;;;;;4934188;29;20047;-87
2021/11/21 00:28:01;;;;;;;19.63;13.70;;;8.30;84.10;;;;;;4935418;29;20106;-86
2021/11/21 00:30:28;;;;;;;18.33;12.43;;;8.30;84.10;;;;;;4934623;29;20059;-86
2021/11/21 00:32:56;;;;;;;23.40;13.85;;;8.30;84.10;;;;;;4932933;29;20465;-86
2021/11/21 00:35:23;;;;;;;20.02;13.73;;;8.30;84.10;;;;;;4934236;29;20060;-86
2021/11/21 00:37:50;;;;;;;20.95;15.15;;;8.30;84.20;;;;;;4934328;29;20408;-86
2021/11/21 00:40:17;;;;;;;21.00;14.40;;;8.30;84.20;;;;;;4934032;29;20071;-87
2021/11/21 00:42:44;;;;;;;19.30;13.88;;;8.30;84.20;;;;;;4936232;29;20239;-85
2021/11/21 00:45:12;;;;;;;20.40;14.32;;;8.30;84.20;;;;;;4934064;29;20115;-86
2021/11/21 00:47:41;;;;;;;19.73;14.77;;;8.30;84.20;;;;;;4932787;29;20056;-86
2021/11/21 00:50:09;;;;;;;18.90;14.45;;;8.30;84.20;;;;;;4933954;29;20044;-86
2021/11/21 00:52:37;;;;;;;21.80;15.93;;;8.30;84.20;;;;;;4934154;29;20094;-86
2021/11/21 00:55:11;;;;;;;22.60;16.42;;;8.30;84.20;;;;;;4933705;29;20051;-86
2021/11/21 00:57:39;;;;;;;22.92;15.93;;;8.30;84.20;;;;;;4934720;29;20054;-85
2021/11/21 01:00:13;;;;;;;23.15;15.55;;;8.30;84.20;;;;;;4933793;29;20047;-85
2021/11/21 01:02:41;;;;;;;23.53;16.27;;;8.30;84.30;;;;;;4933874;29;20200;-86
2021/11/21 01:05:10;;;;;;;23.63;15.82;;;8.30;84.30;;;;;;4933716;29;20047;-86
2021/11/21 01:07:38;;;;;;;22.95;17.55;;;8.30;84.30;;;;;;4933737;29;20048;-85
2021/11/21 01:10:14;;;;;;;25.65;17.77;;;8.30;84.30;;;;;;4933170;29;20048;-86
2021/11/21 01:12:41;;;;;;;26.23;16.95;;;8.30;84.30;;;;;;4934867;29;20047;-86
2021/11/21 01:15:13;;;;;;;27.17;17.88;;;8.30;84.30;;;;;;4933494;29;20058;-86
2021/11/21 01:17:40;;;;;;;26.50;17.88;;;8.30;84.30;;;;;;4933302;29;20505;-86
2021/11/21 01:20:09;;;;;;;23.85;16.80;;;8.30;84.30;;;;;;4933405;29;20054;-86
2021/11/21 01:22:36;;;;;;;24.38;17.00;;;8.30;84.40;;;;;;4933469;29;20509;-86
2021/11/21 01:25:05;;;;;;;22.80;16.10;;;8.30;84.40;;;;;;4933540;29;20052;-87
2021/11/21 01:27:32;;;;;;;23.05;16.00;;;8.30;84.40;;;;;;4933410;29;20080;-88
2021/11/21 01:29:59;;;;;;;26.77;17.08;;;8.30;84.40;;;;;;4933344;29;20059;-87
2021/11/21 01:32:26;;;;;;;24.92;17.08;;;8.30;84.40;;;;;;4933194;29;20107;-87
2021/11/21 01:34:53;;;;;;;24.35;16.17;;;8.30;84.40;;;;;;4933152;29;20600;-87
2021/11/21 01:37:20;;;;;;;22.35;15.98;;;8.30;84.40;;;;;;4918412;29;20044;-88
2021/11/21 01:39:47;;;;;;;24.00;15.98;;;8.30;84.40;;;;;;4930763;29;20059;-87
2021/11/21 01:42:14;;;;;;;23.85;16.67;;;8.30;84.40;;;;;;4933085;29;20059;-86
2021/11/21 01:44:41;;;;;;;24.02;16.63;;;8.30;84.40;;;;;;4932982;29;20505;-85
2021/11/21 01:47:08;;;;;;;25.17;16.95;;;8.30;84.50;;;;;;4933086;29;20114;-87
2021/11/21 01:49:35;;;;;;;22.17;15.15;;;8.30;84.40;;;;;;4931747;29;20059;-86
2021/11/21 01:52:03;;;;;;;23.00;15.27;;;8.30;84.40;;;;;;4933513;29;20055;-86
2021/11/21 01:54:30;;;;;;;22.42;14.40;;;8.30;84.50;;;;;;4934470;29;20059;-86
2021/11/21 01:56:57;;;;;;;22.98;16.20;;;8.30;84.50;;;;;;4932605;29;20295;-86
2021/11/21 01:59:24;;;;;;;23.50;15.35;;;8.30;84.50;;;;;;4932643;29;20055;-86
2021/11/21 02:01:51;;;;;;;20.33;14.20;;;8.30;84.50;;;;;;4932953;29;20111;-86
2021/11/21 02:04:19;;;;;;;22.20;15.10;;;8.30;84.50;;;;;;4917622;29;20055;-86
2021/11/21 02:06:46;;;;;;;20.73;14.68;;;8.30;84.50;;;;;;4934660;29;20051;-86
2021/11/21 02:09:13;;;;;;;19.42;14.15;;;8.30;84.50;;;;;;4932686;29;20158;-86
2021/11/21 02:11:40;;;;;;;18.30;13.18;;;8.30;84.50;;;;;;4931274;29;20508;-86
2021/11/21 02:14:07;;;;;;;19.98;13.13;;;8.30;84.50;;;;;;4932468;29;20047;-86
2021/11/21 02:16:34;;;;;;;18.92;12.60;;;8.30;84.50;;;;;;4932720;29;20508;-86
2021/11/21 02:19:01;;;;;;;18.63;13.98;;;8.30;84.50;;;;;;4933006;29;20051;-86
2021/11/21 02:21:28;;;;;;;17.33;12.13;;;8.30;84.50;;;;;;4933410;29;20047;-87
2021/11/21 02:23:56;;;;;;;18.75;13.00;;;8.30;84.50;;;;;;4932319;29;20580;-87
2021/11/21 02:26:23;;;;;;;19.85;12.35;;;8.30;84.50;;;;;;4932258;29;20060;-86
2021/11/21 02:28:54;;;;;;;17.45;12.02;;;8.30;84.50;;;;;;4931047;29;20052;-86
2021/11/21 02:31:22;;;;;;;17.27;12.02;;;8.30;84.50;;;;;;4917533;29;20052;-88
2021/11/21 02:33:51;;;;;;;18.17;12.05;;;8.30;84.50;;;;;;4934247;29;20444;-87
2021/11/21 02:36:19;;;;;;;14.90;11.00;;;8.30;84.50;;;;;;4929958;29;20048;-88
2021/11/21 02:38:47;;;;;;;19.65;12.02;;;8.30;84.50;;;;;;4931956;29;20051;-87
2021/11/21 02:41:15;;;;;;;17.23;11.70;;;8.30;84.50;;;;;;4932133;29;20040;-86
2021/11/21 02:43:44;;;;;;;20.25;10.88;;;8.30;84.50;;;;;;4932052;29;20477;-86
2021/11/21 02:46:12;;;;;;;16.08;11.23;;;8.40;84.50;;;;;;4932059;29;20568;-86
2021/11/21 02:48:39;;;;;;;15.40;10.75;;;8.30;84.60;;;;;;4933909;29;20135;-87
2021/11/21 02:51:09;;;;;;;14.50;9.65;;;8.30;84.60;;;;;;4931637;29;20052;-86
2021/11/21 02:53:38;;;;;;;15.93;10.23;;;8.30;84.60;;;;;;4931811;29;20051;-87
2021/11/21 02:56:11;;;;;;;16.10;10.80;;;8.30;84.60;;;;;;4931739;29;20517;-86
2021/11/21 02:58:38;;;;;;;14.63;10.02;;;8.30;84.60;;;;;;4931768;29;20531;-87
2021/11/21 03:01:09;;;;;;;14.40;9.80;;;8.30;84.60;;;;;;4931800;29;20060;-86
2021/11/21 03:03:36;;;;;;;19.00;9.25;;;8.30;84.60;;;;;;4934009;29;20469;-86
2021/11/21 03:06:03;;;;;;;14.27;9.98;;;8.30;84.60;;;;;;4931383;29;20103;-87
2021/11/21 03:08:30;;;;;;;13.93;9.43;;;8.30;84.60;;;;;;4930354;29;20047;-86
2021/11/21 03:11:03;;;;;;;13.52;9.27;;;8.30;84.60;;;;;;4931703;29;20131;-87
2021/11/21 03:13:30;;;;;;;14.00;9.15;;;8.30;84.60;;;;;;4931503;29;20111;-87
2021/11/21 03:15:57;;;;;;;14.70;9.60;;;8.30;84.60;;;;;;4933021;29;20110;-87
2021/11/21 03:18:23;;;;;;;12.65;8.85;;;8.30;84.60;;;;;;4932548;29;20086;-87
2021/11/21 03:20:50;;;;;;;14.65;8.65;;;8.30;84.70;;;;;;4931363;29;20081;-87
2021/11/21 03:23:17;;;;;;;13.88;9.20;;;8.30;84.70;;;;;;4931436;29;20040;-87
2021/11/21 03:25:44;;;;;;;13.95;9.23;;;8.30;84.70;;;;;;4931637;29;20047;-87
2021/11/21 03:28:11;;;;;;;13.50;9.07;;;8.30;84.70;;;;;;4931594;29;20056;-87
2021/11/21 03:30:38;;;;;;;13.77;8.35;;;8.30;84.70;;;;;;4933495;29;20051;-86
2021/11/21 03:33:05;;;;;;;13.45;8.23;;;8.30;84.70;;;;;;4933114;29;20110;-86
2021/11/21 03:35:32;;;;;;;11.88;8.55;;;8.30;84.70;;;;;;4934765;29;20051;-87
2021/11/21 03:37:59;;;;;;;14.52;8.70;;;8.30;84.70;;;;;;4935265;29;20044;-86
2021/11/21 03:40:27;;;;;;;11.55;8.20;;;8.30;84.70;;;;;;4935288;29;20058;-86
2021/11/21 03:42:54;;;;;;;12.73;8.40;;;8.30;84.80;;;;;;4936575;29;20409;-86
2021/11/21 03:45:21;;;;;;;11.88;8.32;;;8.30;84.80;;;;;;4936012;29;20059;-86
2021/11/21 03:47:48;;;;;;;13.00;8.35;;;8.30;84.80;;;;;;4933715;29;20060;-86
2021/11/21 03:50:17;;;;;;;14.02;9.20;;;8.30;84.80;;;;;;4934702;29;20052;-86
2021/11/21 03:52:45;;;;;;;12.00;8.30;;;8.30;84.80;;;;;;4935183;29;20142;-87
2021/11/21 03:55:16;;;;;;;12.75;8.80;;;8.30;84.80;;;;;;4934846;29;20052;-87
2021/11/21 03:57:44;;;;;;;13.00;8.70;;;8.30;84.80;;;;;;4937049;29;20145;-87
2021/11/21 04:00:17;;;;;;;12.98;8.38;;;8.30;84.80;;;;;;4934681;29;20056;-87
2021/11/21 04:02:45;;;;;;;12.50;9.05;;;8.30;84.80;;;;;;4934810;29;20048;-86
2021/11/21 04:05:14;;;;;;;12.32;8.05;;;8.30;84.80;;;;;;4933698;29;20087;-87
2021/11/21 04:07:41;;;;;;;13.00;8.35;;;8.30;84.90;;;;;;4935003;29;20078;-86
2021/11/21 04:10:10;;;;;;;13.70;8.52;;;8.30;84.90;;;;;;4934711;29;20505;-86
2021/11/21 04:12:37;;;;;;;12.35;7.80;;;8.30;84.90;;;;;;4935415;29;20500;-86
2021/11/21 04:15:05;;;;;;;13.35;8.60;;;8.30;84.90;;;;;;4934568;29;20119;-87
2021/11/21 04:17:33;;;;;;;12.85;8.68;;;8.30;84.90;;;;;;4934156;29;20424;-87
2021/11/21 04:20:00;;;;;;;12.18;8.15;;;8.30;84.90;;;;;;4934474;29;20685;-87
2021/11/21 04:22:27;;;;;;;16.67;9.25;;;8.30;84.90;;;;;;4934570;29;20440;-86
2021/11/21 04:24:56;;;;;;;12.77;8.95;;;8.30;84.90;;;;;;4935818;29;20097;-86
2021/11/21 04:27:27;;;;;;;13.65;8.98;;;8.40;84.90;;;;;;4935521;29;20048;-86
2021/11/21 04:29:57;;;;;;;14.45;9.13;;;8.30;84.90;;;;;;4934361;29;20060;-86
2021/11/21 04:32:24;;;;;;;14.85;9.90;;;8.40;84.90;;;;;;4933928;29;20052;-86
2021/11/21 04:34:51;;;;;;;12.60;8.57;;;8.40;84.90;;;;;;4934361;29;20055;-86
2021/11/21 04:37:19;;;;;;;15.27;8.80;;;8.40;84.90;;;;;;4918996;29;20048;-85
2021/11/21 04:39:47;;;;;;;12.63;8.93;;;8.40;85.00;;;;;;4936320;29;20055;-86
2021/11/21 04:42:14;;;;;;;13.40;9.18;;;8.40;84.90;;;;;;4934105;29;20095;-86
2021/11/21 04:44:43;;;;;;;15.68;9.65;;;8.40;84.90;;;;;;4933938;29;20103;-86
2021/11/21 04:47:11;;;;;;;14.20;8.88;;;8.40;85.00;;;;;;4933703;29;20051;-86
2021/11/21 04:49:38;;;;;;;15.32;9.82;;;8.40;84.90;;;;;;4933981;29;20469;-85
2021/11/21 04:52:05;;;;;;;13.57;9.00;;;8.40;84.90;;;;;;4934096;29;20535;-86
2021/11/21 04:54:32;;;;;;;15.10;9.32;;;8.40;85.00;;;;;;4936025;29;20517;-86
2021/11/21 04:57:00;;;;;;;13.43;9.05;;;8.40;85.00;;;;;;4933715;29;20091;-86
2021/11/21 04:59:27;;;;;;;17.00;10.35;;;8.40;85.00;;;;;;4933792;29;20469;-86
2021/11/21 05:01:54;;;;;;;14.95;10.10;;;8.40;85.00;;;;;;4933467;29;20040;-88
2021/11/21 05:04:21;;;;;;;13.57;9.55;;;8.40;85.00;;;;;;4932693;29;20527;-87
2021/11/21 05:06:48;;;;;;;15.82;10.55;;;8.40;85.00;;;;;;4935929;29;20055;-87
2021/11/21 05:09:15;;;;;;;15.50;9.68;;;8.40;85.00;;;;;;4933836;29;20047;-87
2021/11/21 05:11:42;;;;;;;17.08;10.73;;;8.40;85.00;;;;;;4933599;29;20114;-86
2021/11/21 05:14:08;;;;;;;15.43;10.48;;;8.40;85.00;;;;;;4933582;29;20043;-86
2021/11/21 05:16:36;;;;;;;14.98;10.30;;;8.40;85.00;;;;;;4933354;29;20051;-86
2021/11/21 05:19:04;;;;;;;16.77;11.20;;;8.40;85.00;;;;;;4933975;29;20106;-86
2021/11/21 05:21:31;;;;;;;17.85;11.02;;;8.40;85.00;;;;;;4933481;29;20491;-87
2021/11/21 05:23:58;;;;;;;16.08;10.85;;;8.40;85.00;;;;;;4933392;29;20051;-87
2021/11/21 05:26:25;;;;;;;13.50;9.55;;;8.40;85.00;;;;;;4933310;29;20079;-86
2021/11/21 05:28:52;;;;;;;15.77;10.80;;;8.40;85.00;;;;;;4933588;29;20067;-86
2021/11/21 05:31:20;;;;;;;17.70;11.20;;;8.40;85.00;;;;;;4917908;29;20502;-86
2021/11/21 05:33:48;;;;;;;17.02;10.95;;;8.40;85.10;;;;;;4931331;29;20059;-86
2021/11/21 05:36:15;;;;;;;18.13;11.30;;;8.40;85.00;;;;;;4933061;29;20588;-87
2021/11/21 05:38:42;;;;;;;16.95;11.18;;;8.40;85.10;;;;;;4933099;29;20124;-87
2021/11/21 05:41:09;;;;;;;18.75;11.25;;;8.40;85.10;;;;;;4933051;29;20413;-86
2021/11/21 05:43:36;;;;;;;15.05;10.60;;;8.40;85.10;;;;;;4931825;29;20048;-87
2021/11/21 05:46:03;;;;;;;17.88;11.77;;;8.40;85.10;;;;;;4933327;29;20159;-86
2021/11/21 05:48:30;;;;;;;16.25;11.00;;;8.40;85.10;;;;;;4934703;29;20564;-86
2021/11/21 05:50:57;;;;;;;15.65;10.43;;;8.40;85.10;;;;;;4932977;29;20064;-86
2021/11/21 05:53:24;;;;;;;17.75;11.13;;;8.40;85.10;;;;;;4932691;29;20465;-87
2021/11/21 05:55:54;;;;;;;18.77;11.45;;;8.40;85.10;;;;;;4932255;29;20532;-88
2021/11/21 05:58:23;;;;;;;16.48;11.20;;;8.40;85.10;;;;;;4917994;29;20054;-86
2021/11/21 06:00:50;;;;;;;16.17;11.30;;;8.40;85.10;;;;;;4930845;29;20055;-86
2021/11/21 06:03:17;;;;;;;17.27;11.80;;;8.40;85.10;;;;;;4930645;29;20058;-86
2021/11/21 06:05:45;;;;;;;16.30;11.35;;;8.40;85.10;;;;;;4932598;29;20152;-87
2021/11/21 06:08:12;;;;;;;17.67;11.68;;;8.40;85.10;;;;;;4932592;29;20044;-86
2021/11/21 06:10:41;;;;;;;17.40;11.00;;;8.40;85.10;;;;;;4932595;29;20409;-87
2021/11/21 06:13:09;;;;;;;17.77;11.93;;;8.40;85.10;;;;;;4932553;29;20048;-86
2021/11/21 06:15:36;;;;;;;16.90;11.98;;;8.40;85.10;;;;;;4934076;29;20420;-86
2021/11/21 06:18:04;;;;;;;17.83;12.38;;;8.40;85.10;;;;;;4932365;29;20453;-86
2021/11/21 06:20:31;;;;;;;18.85;12.35;;;8.40;85.10;;;;;;4932323;29;20523;-87
2021/11/21 06:22:59;;;;;;;17.80;12.07;;;8.40;85.20;;;;;;4930952;29;20409;-88
2021/11/21 06:25:26;;;;;;;18.25;11.88;;;8.40;85.20;;;;;;4932345;29;20103;-87
2021/11/21 06:27:52;;;;;;;15.10;11.43;;;8.40;85.20;;;;;;4933462;29;20058;-88
2021/11/21 06:30:20;;;;;;;19.00;12.38;;;8.40;85.20;;;;;;4932556;29;20059;-87
2021/11/21 06:32:47;;;;;;;18.50;12.60;;;8.40;85.20;;;;;;4932230;29;20059;-87
2021/11/21 06:35:14;;;;;;;19.60;11.98;;;8.40;85.20;;;;;;4932180;29;20055;-87
2021/11/21 06:37:44;;;;;;;20.08;12.82;;;8.40;85.20;;;;;;4932082;29;20052;-87
2021/11/21 06:40:12;;;;;;;18.83;12.52;;;8.40;85.20;;;;;;4930874;29;20521;-87
2021/11/21 06:42:41;;;;;;;19.23;13.55;;;8.40;85.20;;;;;;4933776;29;20054;-87
2021/11/21 06:45:11;;;;;;;19.83;13.63;;;8.40;85.20;;;;;;4931982;29;20091;-87
2021/11/21 06:47:39;;;;;;;19.85;13.70;;;8.40;85.20;;;;;;4931866;29;20059;-87
2021/11/21 06:50:10;;;;;;;22.42;13.85;;;8.40;85.20;;;;;;4931851;29;20043;-86
2021/11/21 06:52:38;;;;;;;25.88;14.23;;;8.40;85.30;;;;;;4932061;29;20132;-86
2021/11/21 06:55:07;;;;;;;25.88;15.32;;;8.50;85.30;;;;;;4931847;29;20047;-87
2021/11/21 06:57:34;;;;;;;20.83;13.70;;;8.40;85.30;;;;;;4931883;29;20048;-86
2021/11/21 07:00:10;;;;;;;23.23;14.45;;;8.50;85.30;;;;;;4930671;29;20056;-86
2021/11/21 07:02:37;;;;;;;24.38;14.95;;;8.50;85.30;;;;;;4930327;29;20055;-87
2021/11/21 07:05:07;;;;;;;24.73;14.32;;;8.50;85.40;;;;;;4931716;29;20103;-86
2021/11/21 07:07:35;;;;;;;21.13;12.95;;;8.50;85.40;;;;;;4931688;29;20122;-88
2021/11/21 07:10:04;;;;;;;28.13;15.63;;;8.50;85.40;;;;;;4932362;29;20441;-87
2021/11/21 07:12:32;;;;;;;26.98;14.57;;;8.50;85.40;;;;;;4931317;29;20056;-87
2021/11/21 07:15:09;;;;;;;24.17;15.38;;;8.50;85.40;;;;;;4931594;29;20058;-86
2021/11/21 07:17:36;;;;;;;21.15;13.43;;;8.50;85.50;;;;;;4931587;29;20056;-86
2021/11/21 07:20:05;;;;;;;23.90;15.30;;;8.50;85.50;;;;;;4931854;29;20040;-86
2021/11/21 07:22:32;;;;;;;22.00;14.43;;;8.50;85.50;;;;;;4931745;29;20055;-86
2021/11/21 07:25:00;;;;;;;24.73;15.73;;;8.60;85.50;;;;;;4932492;29;20054;-86
2021/11/21 07:27:27;;;;;;;23.27;14.18;;;8.60;85.50;;;;;;4932568;29;20061;-86
2021/11/21 07:29:53;;;;;;;21.60;13.95;;;8.60;85.50;;;;;;4931549;29;20056;-86
2021/11/21 07:32:20;;;;;;;20.25;13.95;;;8.60;85.60;;;;;;4930340;29;20051;-86
2021/11/21 07:34:47;;;;;;;23.52;14.77;;;8.60;85.60;;;;;;4927444;29;20056;-86
2021/11/21 07:37:14;;;;;;;21.08;13.65;;;8.60;85.60;;;;;;4922208;29;20067;-86
2021/11/21 07:39:41;;;;;;;23.35;14.68;;;8.60;85.60;;;;;;4937392;29;20054;-86
2021/11/21 07:42:09;;;;;;;22.55;13.75;;;8.60;85.60;;;;;;4932622;28;20056;-87
2021/11/21 07:44:36;;;;;;;22.75;14.00;;;8.60;85.60;;;;;;4932378;29;20051;-86
2021/11/21 07:47:03;;;;;;;20.67;13.32;;;8.60;85.60;;;;;;4932610;29;20508;-86
2021/11/21 07:49:30;;;;;;;24.25;14.57;;;8.70;85.60;;;;;;4931566;29;20051;-87
2021/11/21 07:51:57;;;;;;;20.85;13.13;;;8.70;85.60;;;;;;4932513;29;20102;-88
2021/11/21 07:54:24;;;;;;;20.83;13.73;;;8.70;85.60;;;;;;4931424;29;20060;-87
2021/11/21 07:56:52;;;;;;;22.48;14.15;;;8.70;85.60;;;;;;4931840;29;20106;-88
2021/11/21 07:59:19;;;;;;;22.55;13.85;;;8.70;85.60;;;;;;4932215;29;20111;-87
2021/11/21 08:01:47;;;;;;;25.73;15.05;;;8.70;85.60;;;;;;4932494;29;20052;-87
2021/11/21 08:04:14;;;;;;;23.08;14.75;;;8.70;85.70;;;;;;4932298;29;20052;-88
2021/11/21 08:06:41;;;;;;;28.60;15.63;;;8.70;85.70;;;;;;4934030;29;20054;-87
2021/11/21 08:09:09;;;;;;;23.85;13.98;;;8.70;85.70;;;;;;4932368;29;20054;-87
2021/11/21 08:11:36;;;;;;;24.17;15.60;;;8.80;85.70;;;;;;4932063;29;20059;-87
2021/11/21 08:14:03;;;;;;;21.80;14.07;;;8.80;85.70;;;;;;4932165;29;20043;-86
2021/11/21 08:16:30;;;;;;;22.55;14.32;;;8.80;85.70;;;;;;4932304;29;20405;-86
2021/11/21 08:18:57;;;;;;;21.17;13.68;;;8.80;85.80;;;;;;4934606;29;20055;-86
2021/11/21 08:21:24;;;;;;;21.45;13.95;;;8.90;85.80;;;;;;4936640;29;20060;-85
2021/11/21 08:23:51;;;;;;;19.63;13.43;;;8.90;85.80;;;;;;4935570;29;20103;-86
2021/11/21 08:26:18;;;;;;;26.45;14.30;;;8.90;85.80;;;;;;4935616;29;20051;-86
2021/11/21 08:28:45;;;;;;;27.70;13.18;;;8.90;85.80;;;;;;4935268;29;20051;-86
2021/11/21 08:31:13;;;;;;;26.13;13.05;;;8.90;85.80;;;;;;4935810;29;20052;-86
2021/11/21 08:33:40;;;;;;;22.38;13.23;;;8.90;85.90;;;;;;4937575;29;20111;-86
2021/11/21 08:36:06;;;;;;;22.15;12.57;;;8.90;85.90;;;;;;4935124;29;20052;-86
2021/11/21 08:38:34;;;;;;;20.30;12.30;;;8.90;85.90;;;;;;4935288;29;20390;-88
2021/11/21 08:41:02;;;;;;;24.05;12.82;;;9.00;85.90;;;;;;4935399;29;20047;-87
2021/11/21 08:43:29;;;;;;;24.85;13.38;;;9.00;85.90;;;;;;4934038;29;20055;-86
2021/11/21 08:45:56;;;;;;;20.20;11.30;;;9.00;85.90;;;;;;4936701;29;20048;-86
2021/11/21 08:48:23;;;;;;;20.40;12.38;;;9.00;85.90;;;;;;4934164;29;20572;-86
2021/11/21 08:50:51;;;;;;;17.48;11.38;;;9.00;85.90;;;;;;4935022;29;20059;-86
2021/11/21 08:53:18;;;;;;;18.35;11.30;;;9.10;85.90;;;;;;4934931;29;20048;-86
2021/11/21 08:55:45;;;;;;;19.85;11.20;;;9.10;85.90;;;;;;4934766;29;20115;-87
2021/11/21 08:58:12;;;;;;;17.63;11.57;;;9.10;85.90;;;;;;4934764;29;20051;-87
2021/11/21 09:00:39;;;;;;;22.90;11.52;;;9.10;85.90;;;;;;4935974;29;20055;-87
2021/11/21 09:03:06;;;;;;;18.65;11.43;;;9.10;85.90;;;;;;4934866;29;20052;-87
2021/11/21 09:05:34;;;;;;;17.77;10.35;;;9.10;85.90;;;;;;4934588;29;20410;-87
2021/11/21 09:08:16;;;;;;;19.67;11.15;;;9.10;85.90;;;;;;4934705;29;20058;-88
2021/11/21 09:10:43;;;;;;;18.90;11.57;;;9.20;85.90;;;;;;4935132;29;20103;-87
2021/11/21 09:13:10;;;;;;;16.20;9.85;;;9.10;85.90;;;;;;4934563;29;20421;-87
2021/11/21 09:15:37;;;;;;;15.60;10.50;;;9.20;85.90;;;;;;4936755;29;20079;-86
2021/11/21 09:18:04;;;;;;;14.60;10.18;;;9.20;85.90;;;;;;4933688;29;20516;-86
2021/11/21 09:20:31;;;;;;;19.50;10.65;;;9.20;85.90;;;;;;4934479;29;20059;-87
2021/11/21 09:22:59;;;;;;;12.65;9.40;;;9.20;85.90;;;;;;4933989;29;20461;-86
2021/11/21 09:25:26;;;;;;;17.55;9.88;;;9.30;85.90;;;;;;4934891;29;20051;-87
2021/11/21 09:27:53;;;;;;;17.52;9.50;;;9.30;85.90;;;;;;4935866;29;20107;-87
2021/11/21 09:30:22;;;;;;;16.10;8.77;;;9.30;85.90;;;;;;4933917;29;20056;-87
2021/11/21 09:32:51;;;;;;;17.05;9.48;;;9.30;85.90;;;;;;4934641;29;20056;-86
2021/11/21 09:35:19;;;;;;;14.95;9.55;;;9.30;85.90;;;;;;4934185;29;20110;-86
2021/11/21 09:37:46;;;;;;;15.35;8.55;;;9.40;85.90;;;;;;4932924;29;20047;-86
2021/11/21 09:40:14;;;;;;;13.68;8.63;;;9.40;85.80;;;;;;4934387;29;20047;-87
2021/11/21 09:42:42;;;;;;;13.05;8.80;;;9.40;85.80;;;;;;4936144;29;20079;-87
2021/11/21 09:45:11;;;;;;;15.75;9.35;;;9.40;85.80;;;;;;4934147;29;20051;-87
2021/11/21 09:47:39;;;;;;;19.63;8.35;;;9.40;85.80;;;;;;4934082;29;20459;-88
2021/11/21 09:50:11;;;;;;;14.10;8.25;;;9.40;85.70;;;;;;4933701;29;20050;-86
2021/11/21 09:52:38;;;;;;;14.80;8.18;;;9.40;85.70;;;;;;4934005;29;20052;-85
2021/11/21 09:55:07;;;;;;;13.43;8.32;;;9.40;85.70;;;;;;4934371;29;20460;-86
2021/11/21 09:57:36;;;;;;;17.38;8.57;;;9.50;85.70;;;;;;4934073;29;20060;-86
2021/11/21 10:00:15;;;;;;;19.63;8.20;;;9.40;85.70;;;;;;4934058;29;20044;-86
2021/11/21 10:02:50;;;;;;;13.65;7.22;;;9.50;85.70;;;;;;4934025;29;20457;-86
2021/11/21 10:05:24;;;;;;;17.33;6.13;;;9.50;85.70;;;;;;4933393;29;20449;-86
2021/11/21 10:08:13;;;;;;;15.90;7.55;;;9.50;85.70;;;;;;4934096;29;20059;-88
2021/11/21 10:10:50;;;;;;;15.88;7.47;;;9.50;85.70;;;;;;4921666;29;20084;-87
2021/11/21 10:13:28;;;;;;;18.40;7.13;;;9.50;85.70;;;;;;4933368;29;20048;-87
2021/11/21 10:15:58;;;;;;;15.00;7.10;;;9.50;85.80;;;;;;4931988;29;20508;-87
2021/11/21 10:18:25;;;;;;;11.30;6.65;;;9.60;85.80;;;;;;4934754;29;20058;-86
2021/11/21 10:20:53;;;;;;;15.13;7.30;;;9.60;85.80;;;;;;4933093;29;20127;-86
2021/11/21 10:23:21;;;;;;;18.58;6.57;;;9.60;85.80;;;;;;4933541;29;20044;-86
2021/11/21 10:25:52;;;;;;;18.52;6.95;;;9.60;85.80;;;;;;4933737;29;20055;-86
2021/11/21 10:28:22;;;;;;;16.27;6.13;;;9.70;85.80;;;;;;4918190;29;20052;-86
2021/11/21 10:30:58;;;;;;;19.63;6.35;;;9.70;85.80;;;;;;4934879;29;20051;-87
2021/11/21 10:33:29;;;;;;;14.60;5.22;;;9.70;85.80;;;;;;4934560;29;20062;-86
2021/11/21 10:36:15;;;;;;;14.07;5.30;;;9.70;85.80;;;;;;4932649;29;20051;-87
2021/11/21 10:38:54;;;;;;;13.35;5.25;;;9.70;85.80;;;;;;4933433;29;20099;-87
2021/11/21 10:41:30;;;;;;;14.57;4.55;;;9.70;85.70;;;;;;4933233;29;20044;-87
2021/11/21 10:44:07;;;;;;;11.75;4.65;;;9.80;85.70;;;;;;4933124;29;20493;-86
2021/11/21 10:46:40;;;;;;;12.40;4.18;;;9.80;85.70;;;;;;4933150;29;20508;-87
2021/11/21 10:49:36;;;;;;;13.15;3.83;;;9.80;85.60;;;;;;4932910;29;20122;-88
2021/11/21 10:52:09;;;;;;;11.43;4.18;;;9.80;85.50;;;;;;4931775;29;20394;-88
2021/11/21 10:54:46;;;;;;;12.50;4.13;;;9.80;85.40;;;;;;4933660;29;20051;-88
2021/11/21 10:57:20;;;;;;;12.30;4.10;;;9.80;85.40;;;;;;4931184;29;20063;-88
2021/11/21 10:59:50;;;;;;;14.60;4.35;;;9.80;85.30;;;;;;4933034;29;20517;-88
2021/11/21 11:02:26;;;;;;;11.40;4.13;;;9.70;85.30;;;;;;4932866;29;20472;-88
2021/11/21 11:05:18;;;;;;;13.75;4.07;;;9.70;85.20;;;;;;4932350;29;20501;-88
2021/11/21 11:07:47;;;;;;;12.30;3.92;;;9.70;85.20;;;;;;4921268;29;20398;-87
2021/11/21 11:10:24;;;;;;;13.02;3.60;;;9.70;85.10;;;;;;4932834;29;20052;-89
2021/11/21 11:13:05;;;;;;;10.35;3.35;;;9.70;85.10;;;;;;4930595;29;20428;-89
2021/11/21 11:15:35;;;;;;;12.10;3.65;;;9.60;85.10;;;;;;4931759;29;20044;-90
2021/11/21 11:18:02;;;;;;;11.20;3.40;;;9.60;85.00;;;;;;4932441;29;20056;-88
2021/11/21 11:20:29;;;;;;;9.88;3.10;;;9.50;85.00;;;;;;4932550;29;20432;-88
2021/11/21 11:22:58;;;;;;;10.85;2.80;;;9.60;85.00;;;;;;4932800;29;20508;-87
2021/11/21 11:25:32;;;;;;;10.10;3.40;;;9.50;85.00;;;;;;4932870;29;20528;-87
2021/11/21 11:28:11;;;;;;;8.32;2.80;;;9.50;85.00;;;;;;4933579;29;20079;-88
2021/11/21 11:30:39;;;;;;;13.82;3.47;;;9.50;85.00;;;;;;4933662;29;20048;-87
2021/11/21 11:33:10;;;;;;;9.55;3.38;;;9.50;85.00;;;;;;4932400;29;20084;-86
2021/11/21 11:35:43;;;;;;;8.57;2.67;;;9.40;85.00;;;;;;4930878;29;20083;-87
2021/11/21 11:38:16;;;;;;;13.25;3.13;;;9.40;85.10;;;;;;4932542;29;20055;-87
2021/11/21 11:40:44;;;;;;;9.27;3.05;;;9.50;85.10;;;;;;4932792;29;20052;-87
2021/11/21 11:43:35;;;;;;;10.43;2.97;;;9.40;85.10;;;;;;4932447;29;20099;-87
2021/11/21 11:46:15;;;;;;;9.70;3.08;;;9.40;85.10;;;;;;4931194;29;20154;-87
2021/11/21 11:48:45;;;;;;;14.10;3.25;;;9.40;85.10;;;;;;4933337;29;20051;-87
2021/11/21 11:51:18;;;;;;;14.57;3.15;;;9.40;85.10;;;;;;4932426;29;20532;-85
2021/11/21 11:53:54;;;;;;;10.95;3.00;;;9.40;85.10;;;;;;4933648;29;20051;-87
2021/11/21 11:56:40;;;;;;;12.73;3.67;;;9.40;85.20;;;;;;4935675;29;20070;-86
2021/11/21 11:59:09;;;;;;;11.35;3.03;;;9.40;85.10;;;;;;4934995;29;20513;-86
2021/11/21 12:01:42;;;;;;;10.43;3.13;;;9.40;85.10;;;;;;4935527;29;20040;-87
2021/11/21 12:04:29;;;;;;;11.15;3.33;;;9.40;85.10;;;;;;4934650;29;20481;-87
2021/11/21 12:06:59;;;;;;;9.80;3.08;;;9.40;85.10;;;;;;4934217;29;20074;-88
2021/11/21 12:09:31;;;;;;;9.68;3.50;;;9.40;85.10;;;;;;4937384;29;20087;-87
2021/11/21 12:12:06;;;;;;;9.65;3.03;;;9.40;85.10;;;;;;4934605;29;20114;-88
2021/11/21 12:14:47;;;;;;;7.25;2.60;;;9.40;85.10;;;;;;4934608;29;20130;-87
2021/11/21 12:17:17;;;;;;;9.65;2.90;;;9.50;85.10;;;;;;4935435;29;20056;-87
2021/11/21 12:19:52;;;;;;;10.15;3.30;;;9.40;85.10;;;;;;4935561;29;20516;-87
2021/11/21 12:22:25;;;;;;;9.98;2.97;;;9.50;85.10;;;;;;4935874;29;20544;-87
2021/11/21 12:24:54;;;;;;;9.27;3.00;;;9.40;85.10;;;;;;4933983;29;20052;-88
2021/11/21 12:27:39;;;;;;;8.43;2.90;;;9.50;85.10;;;;;;4934785;29;20051;-88
2021/11/21 12:30:13;;;;;;;10.32;3.35;;;9.50;85.10;;;;;;4935331;29;20051;-88
2021/11/21 12:32:47;;;;;;;10.52;3.50;;;9.50;85.10;;;;;;4935316;29;20115;-87
2021/11/21 12:35:29;;;;;;;12.02;3.35;;;9.50;85.10;;;;;;4935418;29;20543;-88
2021/11/21 12:38:01;;;;;;;9.40;3.80;;;9.50;85.00;;;;;;4935585;29;20055;-87
2021/11/21 12:40:51;;;;;;;12.18;3.50;;;9.50;85.00;;;;;;4935063;29;20477;-88
2021/11/21 12:43:21;;;;;;;12.00;3.60;;;9.50;85.00;;;;;;4935473;29;20060;-87
2021/11/21 12:45:54;;;;;;;11.88;3.28;;;9.50;85.00;;;;;;4933236;29;20106;-88
2021/11/21 12:48:25;;;;;;;7.95;3.70;;;9.50;85.00;;;;;;4934222;29;20055;-87
2021/11/21 12:50:56;;;;;;;9.00;3.60;;;9.50;85.00;;;;;;4935343;29;20139;-88